Time;durP1;ratioP1;P1;durP2;ratioP2;P2;SDS_P1;SDS_P2;PMS_P1;PMS_P2;Temp;Humidity;BMP_temperature;BMP_pressure;BME280_temperature;BME280_humidity;BME280_pressure;Samples;Min_cycle;Max_cycle;Signal;HPM_P1;HPM_P2
2022/11/15 00:02:04;;;;;;;;;6.50;6.50;;;;;;;;5082871;27;46708;-76
2022/11/15 00:04:29;;;;;;;;;6.75;6.00;;;;;;;;5085284;27;47329;-76
2022/11/15 00:06:55;;;;;;;;;12.25;8.50;;;;;;;;5079602;27;45433;-76
2022/11/15 00:09:20;;;;;;;;;8.50;7.00;;;;;;;;5079428;27;45242;-75
2022/11/15 00:11:45;;;;;;;;;8.75;7.00;;;;;;;;5079708;27;45775;-76
2022/11/15 00:14:10;;;;;;;;;9.00;8.25;;;;;;;;5079245;27;45572;-76
2022/11/15 00:16:35;;;;;;;;;8.00;6.00;;;;;;;;5079028;27;45405;-75
2022/11/15 00:19:00;;;;;;;;;7.25;7.25;;;;;;;;5079564;27;45259;-75
2022/11/15 00:21:26;;;;;;;;;8.00;8.00;;;;;;;;5079640;27;45296;-75
2022/11/15 00:23:51;;;;;;;;;6.25;6.25;;;;;;;;5078886;27;45330;-76
2022/11/15 00:26:16;;;;;;;;;5.00;5.00;;;;;;;;5081102;27;45484;-75
2022/11/15 00:28:41;;;;;;;;;7.50;7.50;;;;;;;;5078490;27;45386;-76
2022/11/15 00:31:09;;;;;;;;;7.00;7.00;;;;;;;;5086586;27;45511;-76
2022/11/15 00:33:34;;;;;;;;;10.25;8.75;;;;;;;;5079287;27;47188;-76
2022/11/15 00:36:04;;;;;;;;;5.50;5.50;;;;;;;;5082133;27;45298;-76
2022/11/15 00:38:33;;;;;;;;;4.25;4.25;;;;;;;;5077758;28;45248;-76
2022/11/15 00:40:58;;;;;;;;;6.50;6.50;;;;;;;;5081459;27;45617;-76
2022/11/15 00:43:23;;;;;;;;;6.00;6.00;;;;;;;;5078718;27;45275;-76
2022/11/15 00:45:49;;;;;;;;;5.50;5.00;;;;;;;;5082222;27;45262;-76
2022/11/15 00:48:14;;;;;;;;;5.00;5.00;;;;;;;;5078846;28;45389;-76
2022/11/15 00:50:39;;;;;;;;;5.00;4.25;;;;;;;;5080595;27;45154;-76
2022/11/15 00:53:04;;;;;;;;;6.00;4.50;;;;;;;;5078403;28;45193;-75
2022/11/15 00:55:29;;;;;;;;;4.00;4.00;;;;;;;;5080761;27;45397;-76
2022/11/15 00:57:54;;;;;;;;;5.75;5.25;;;;;;;;5089956;27;45212;-75
2022/11/15 01:00:20;;;;;;;;;5.50;4.25;;;;;;;;5083064;27;46426;-75
2022/11/15 01:02:45;;;;;;;;;5.25;2.75;;;;;;;;5084160;27;48438;-75
2022/11/15 01:05:10;;;;;;;;;4.25;3.50;;;;;;;;5090411;27;45287;-76
2022/11/15 01:07:35;;;;;;;;;2.75;2.75;;;;;;;;5081194;27;45196;-76
2022/11/15 01:10:00;;;;;;;;;4.00;2.00;;;;;;;;5093276;27;45373;-76
2022/11/15 01:12:26;;;;;;;;;3.25;3.25;;;;;;;;5079597;28;46218;-76
2022/11/15 01:14:51;;;;;;;;;4.50;4.50;;;;;;;;5081559;27;45160;-75
2022/11/15 01:17:16;;;;;;;;;3.00;2.50;;;;;;;;5084051;27;45241;-76
2022/11/15 01:19:41;;;;;;;;;1.00;1.00;;;;;;;;5078098;27;45161;-75
2022/11/15 01:22:06;;;;;;;;;3.25;3.00;;;;;;;;5085775;27;45298;-76
2022/11/15 01:24:32;;;;;;;;;4.50;3.50;;;;;;;;5081687;27;45518;-76
2022/11/15 01:26:57;;;;;;;;;3.00;3.00;;;;;;;;5087073;27;46592;-76
2022/11/15 01:29:22;;;;;;;;;5.00;3.00;;;;;;;;5082161;27;45397;-76
2022/11/15 01:31:47;;;;;;;;;3.25;3.25;;;;;;;;5085884;27;45571;-75
2022/11/15 01:34:12;;;;;;;;;5.50;2.00;;;;;;;;5091903;27;45347;-75
2022/11/15 01:36:38;;;;;;;;;3.50;3.50;;;;;;;;5088858;27;45461;-75
2022/11/15 01:39:03;;;;;;;;;2.75;2.75;;;;;;;;5081692;27;45421;-75
2022/11/15 01:41:30;;;;;;;;;2.75;2.75;;;;;;;;5082090;27;45407;-76
2022/11/15 01:43:57;;;;;;;;;4.00;2.75;;;;;;;;5081640;27;45288;-75
2022/11/15 01:46:35;;;;;;;;;2.75;2.75;;;;;;;;5084025;27;45315;-76
2022/11/15 01:49:11;;;;;;;;;4.00;4.00;;;;;;;;5082529;27;45076;-75
2022/11/15 01:51:36;;;;;;;;;4.25;3.25;;;;;;;;5092625;27;46228;-75
2022/11/15 01:54:03;;;;;;;;;5.00;3.00;;;;;;;;5091257;27;45216;-76
2022/11/15 01:56:30;;;;;;;;;5.00;3.50;;;;;;;;5089563;27;45209;-75
2022/11/15 01:58:56;;;;;;;;;2.75;2.75;;;;;;;;5101338;27;45470;-75
2022/11/15 02:01:24;;;;;;;;;2.75;2.75;;;;;;;;5087908;27;46852;-76
2022/11/15 02:03:56;;;;;;;;;4.75;3.00;;;;;;;;5081026;27;45291;-76
2022/11/15 02:06:21;;;;;;;;;4.75;3.25;;;;;;;;5092482;27;45445;-76
2022/11/15 02:08:47;;;;;;;;;2.00;2.00;;;;;;;;5081891;27;45396;-76
2022/11/15 02:11:13;;;;;;;;;3.50;2.25;;;;;;;;5083071;27;45323;-75
2022/11/15 02:13:38;;;;;;;;;3.75;3.75;;;;;;;;5079643;27;45403;-76
2022/11/15 02:16:04;;;;;;;;;2.00;2.00;;;;;;;;5080712;27;45312;-76
2022/11/15 02:18:35;;;;;;;;;3.00;3.00;;;;;;;;5079768;27;46050;-75
2022/11/15 02:21:23;;;;;;;;;3.00;2.00;;;;;;;;5085424;27;45453;-75
2022/11/15 02:24:15;;;;;;;;;4.00;2.00;;;;;;;;5094120;27;45227;-76
2022/11/15 02:26:56;;;;;;;;;4.75;2.25;;;;;;;;5085856;27;45354;-75
2022/11/15 02:29:28;;;;;;;;;2.75;2.50;;;;;;;;5083526;27;45409;-76
2022/11/15 02:31:59;;;;;;;;;3.50;2.25;;;;;;;;5082633;27;46678;-76
2022/11/15 02:34:28;;;;;;;;;2.25;2.00;;;;;;;;5096392;27;44866;-76
2022/11/15 02:37:08;;;;;;;;;2.50;2.50;;;;;;;;5086170;27;45392;-76
2022/11/15 02:39:43;;;;;;;;;1.75;1.00;;;;;;;;5088677;27;45547;-75
2022/11/15 02:44:58;;;;;;;;;1.00;1.00;;;;;;;;5081550;27;45496;-76
2022/11/15 02:47:24;;;;;;;;;3.00;1.75;;;;;;;;5086032;27;45284;-76
2022/11/15 02:49:51;;;;;;;;;3.75;3.00;;;;;;;;5092526;27;45690;-76
2022/11/15 02:52:17;;;;;;;;;5.00;3.00;;;;;;;;5080380;27;45421;-76
2022/11/15 02:54:42;;;;;;;;;7.00;4.00;;;;;;;;5081294;27;45473;-76
2022/11/15 02:57:15;;;;;;;;;3.00;1.50;;;;;;;;5089894;27;45267;-76
2022/11/15 02:59:53;;;;;;;;;2.00;2.00;;;;;;;;5079326;27;45768;-76
2022/11/15 03:02:18;;;;;;;;;3.75;3.25;;;;;;;;5079927;27;46035;-76
2022/11/15 03:04:43;;;;;;;;;4.25;4.00;;;;;;;;5084233;27;45244;-76
2022/11/15 03:07:18;;;;;;;;;4.75;4.25;;;;;;;;5086242;27;45433;-75
2022/11/15 03:09:52;;;;;;;;;9.25;4.25;;;;;;;;5082125;27;45671;-75
2022/11/15 03:12:20;;;;;;;;;3.50;3.50;;;;;;;;5087785;27;46698;-76
2022/11/15 03:15:05;;;;;;;;;4.00;4.00;;;;;;;;5082277;27;45284;-75
2022/11/15 03:17:33;;;;;;;;;4.25;3.00;;;;;;;;5084185;27;45273;-76
2022/11/15 03:20:01;;;;;;;;;4.00;4.00;;;;;;;;5079584;27;45250;-76
2022/11/15 03:22:28;;;;;;;;;4.75;3.00;;;;;;;;5084657;27;45286;-76
2022/11/15 03:24:55;;;;;;;;;5.00;5.00;;;;;;;;5079203;27;45850;-75
2022/11/15 03:27:22;;;;;;;;;5.25;4.00;;;;;;;;5085626;27;45492;-76
2022/11/15 03:29:51;;;;;;;;;3.25;3.00;;;;;;;;5079709;27;45262;-76
2022/11/15 03:32:19;;;;;;;;;3.75;3.75;;;;;;;;5086117;27;45289;-76
2022/11/15 03:34:47;;;;;;;;;5.00;4.00;;;;;;;;5084512;27;45481;-76
2022/11/15 03:37:14;;;;;;;;;5.00;4.00;;;;;;;;5087086;27;45406;-76
2022/11/15 03:39:39;;;;;;;;;5.00;4.00;;;;;;;;5095170;27;45507;-76
2022/11/15 03:42:07;;;;;;;;;5.00;3.00;;;;;;;;5091895;27;45228;-76
2022/11/15 03:44:52;;;;;;;;;4.00;3.00;;;;;;;;5091417;27;45370;-77
2022/11/15 03:47:26;;;;;;;;;4.50;4.50;;;;;;;;5083961;27;45377;-76
2022/11/15 03:49:53;;;;;;;;;5.50;2.50;;;;;;;;5080934;27;45268;-76
2022/11/15 03:52:19;;;;;;;;;5.00;4.25;;;;;;;;5079436;27;46254;-76
2022/11/15 03:54:54;;;;;;;;;6.00;4.00;;;;;;;;5078954;27;45807;-76
2022/11/15 03:57:20;;;;;;;;;7.50;3.50;;;;;;;;5084239;27;45338;-76
2022/11/15 03:59:45;;;;;;;;;5.00;4.00;;;;;;;;5079176;27;45458;-76
2022/11/15 04:02:10;;;;;;;;;5.50;3.25;;;;;;;;5079163;27;46217;-77
2022/11/15 04:04:35;;;;;;;;;5.25;3.00;;;;;;;;5079175;27;45577;-76
2022/11/15 04:07:01;;;;;;;;;4.25;4.25;;;;;;;;5084952;27;44790;-76
2022/11/15 04:09:26;;;;;;;;;3.50;3.00;;;;;;;;5088162;27;45412;-76
2022/11/15 04:11:51;;;;;;;;;2.00;2.00;;;;;;;;5081518;27;45349;-76
2022/11/15 04:14:16;;;;;;;;;3.75;2.00;;;;;;;;5091358;27;45311;-76
2022/11/15 04:16:41;;;;;;;;;6.25;3.25;;;;;;;;5082104;27;45542;-76
2022/11/15 04:24:34;;;;;;;;;1.25;1.25;;;;;;;;5078795;27;45737;-75
2022/11/15 04:27:00;;;;;;;;;5.25;4.00;;;;;;;;5084183;27;45455;-75
2022/11/15 04:29:34;;;;;;;;;3.50;3.50;;;;;;;;5079676;27;45291;-75
2022/11/15 04:32:00;;;;;;;;;4.75;2.00;;;;;;;;5080899;27;45429;-75
2022/11/15 04:34:25;;;;;;;;;3.75;2.75;;;;;;;;5079015;27;45585;-75
2022/11/15 04:39:34;;;;;;;;;7.50;3.75;;;;;;;;5078821;27;45305;-75
2022/11/15 04:41:59;;;;;;;;;4.00;3.75;;;;;;;;5078771;27;46554;-75
2022/11/15 04:44:25;;;;;;;;;8.00;4.00;;;;;;;;5078441;27;45505;-75
2022/11/15 04:46:50;;;;;;;;;3.50;2.50;;;;;;;;5089190;27;45527;-75
2022/11/15 04:49:15;;;;;;;;;3.25;1.00;;;;;;;;5078150;28;45339;-75
2022/11/15 04:51:40;;;;;;;;;6.00;2.75;;;;;;;;5084511;27;46930;-75
2022/11/15 04:54:05;;;;;;;;;4.75;3.75;;;;;;;;5082348;27;45405;-75
2022/11/15 04:56:31;;;;;;;;;4.50;3.00;;;;;;;;5089006;27;45287;-76
2022/11/15 04:58:56;;;;;;;;;5.50;3.00;;;;;;;;5093844;27;45326;-76
2022/11/15 05:01:21;;;;;;;;;4.75;4.00;;;;;;;;5088094;27;45433;-76
2022/11/15 05:06:30;;;;;;;;;4.00;4.00;;;;;;;;5084447;27;45442;-75
2022/11/15 05:08:55;;;;;;;;;4.50;3.25;;;;;;;;5092179;27;45452;-75
2022/11/15 05:11:21;;;;;;;;;5.75;5.75;;;;;;;;5088314;27;45464;-75
2022/11/15 05:13:46;;;;;;;;;3.50;3.50;;;;;;;;5081975;27;45361;-74
2022/11/15 05:16:12;;;;;;;;;7.75;7.00;;;;;;;;5087708;27;45691;-76
2022/11/15 05:18:40;;;;;;;;;4.00;4.00;;;;;;;;5084266;27;45433;-76
2022/11/15 05:21:09;;;;;;;;;3.50;2.25;;;;;;;;5086749;27;45611;-77
2022/11/15 05:23:35;;;;;;;;;4.25;3.00;;;;;;;;5081663;27;45496;-77
2022/11/15 05:26:04;;;;;;;;;3.00;2.00;;;;;;;;5082379;27;45252;-79
2022/11/15 05:28:30;;;;;;;;;4.50;4.00;;;;;;;;5082085;27;45371;-77
2022/11/15 05:31:09;;;;;;;;;5.00;2.75;;;;;;;;5086410;27;46455;-77
2022/11/15 05:33:38;;;;;;;;;2.50;2.50;;;;;;;;5099346;27;45331;-76
2022/11/15 05:36:22;;;;;;;;;3.00;3.00;;;;;;;;5092351;27;45142;-77
2022/11/15 05:38:48;;;;;;;;;4.00;4.00;;;;;;;;5083774;27;45390;-76
2022/11/15 05:41:14;;;;;;;;;6.75;2.25;;;;;;;;5093190;27;47627;-76
2022/11/15 05:43:41;;;;;;;;;3.00;2.00;;;;;;;;5081538;27;45272;-77
2022/11/15 05:46:06;;;;;;;;;4.00;4.00;;;;;;;;5083609;27;45364;-76
2022/11/15 05:48:34;;;;;;;;;2.50;2.50;;;;;;;;5092918;27;45568;-76
2022/11/15 05:50:59;;;;;;;;;3.25;3.25;;;;;;;;5085870;27;46411;-76
2022/11/15 05:53:25;;;;;;;;;4.00;4.00;;;;;;;;5081308;27;45306;-76
2022/11/15 05:55:51;;;;;;;;;5.25;4.25;;;;;;;;5083453;27;45371;-77
2022/11/15 05:58:16;;;;;;;;;4.00;4.00;;;;;;;;5091371;27;45437;-79
2022/11/15 06:00:43;;;;;;;;;4.75;4.00;;;;;;;;5083410;27;46043;-77
2022/11/15 06:03:08;;;;;;;;;5.75;4.75;;;;;;;;5081148;27;45389;-75
2022/11/15 06:05:33;;;;;;;;;6.00;5.00;;;;;;;;5089052;27;45430;-75
2022/11/15 06:07:58;;;;;;;;;10.00;5.00;;;;;;;;5087381;27;45497;-75
2022/11/15 06:10:24;;;;;;;;;9.75;5.25;;;;;;;;5091863;27;45204;-75
2022/11/15 06:13:02;;;;;;;;;9.25;7.50;;;;;;;;5082308;27;45169;-74
2022/11/15 06:15:27;;;;;;;;;7.50;4.25;;;;;;;;5084187;27;45350;-75
2022/11/15 06:17:57;;;;;;;;;3.75;3.50;;;;;;;;5082433;27;45258;-76
2022/11/15 06:20:22;;;;;;;;;4.00;4.00;;;;;;;;5084242;27;46128;-75
2022/11/15 06:22:47;;;;;;;;;6.25;6.25;;;;;;;;5081766;27;45366;-74
2022/11/15 06:25:12;;;;;;;;;4.25;4.00;;;;;;;;5083460;27;45335;-76
2022/11/15 06:27:37;;;;;;;;;9.00;5.50;;;;;;;;5084333;27;45412;-75
2022/11/15 06:30:03;;;;;;;;;6.75;5.75;;;;;;;;5083326;27;48060;-75
2022/11/15 06:32:29;;;;;;;;;6.25;5.50;;;;;;;;5085149;27;45508;-78
2022/11/15 06:34:54;;;;;;;;;6.25;6.00;;;;;;;;5082115;27;45190;-77
2022/11/15 06:37:19;;;;;;;;;7.50;5.25;;;;;;;;5087889;27;45513;-76
2022/11/15 06:39:44;;;;;;;;;10.50;6.00;;;;;;;;5090138;27;45279;-76
2022/11/15 06:42:10;;;;;;;;;5.00;5.00;;;;;;;;5082352;27;45296;-76
2022/11/15 06:44:35;;;;;;;;;6.00;5.00;;;;;;;;5080731;27;45276;-76
2022/11/15 06:47:00;;;;;;;;;8.75;6.00;;;;;;;;5082699;27;45223;-76
2022/11/15 06:49:25;;;;;;;;;12.00;6.75;;;;;;;;5080692;27;45263;-76
2022/11/15 06:51:50;;;;;;;;;12.50;11.75;;;;;;;;5094003;27;45295;-77
2022/11/15 06:54:15;;;;;;;;;11.75;9.00;;;;;;;;5096488;27;45460;-77
2022/11/15 06:56:41;;;;;;;;;8.75;7.00;;;;;;;;5094725;27;46784;-77
2022/11/15 06:59:06;;;;;;;;;7.75;5.25;;;;;;;;5093210;27;45208;-75
2022/11/15 07:01:31;;;;;;;;;9.00;9.00;;;;;;;;5092057;27;45437;-76
2022/11/15 07:03:56;;;;;;;;;10.00;6.75;;;;;;;;5084081;27;45201;-76
2022/11/15 07:06:21;;;;;;;;;8.75;6.00;;;;;;;;5079959;27;45455;-76
2022/11/15 07:08:46;;;;;;;;;11.25;7.25;;;;;;;;5089760;27;45514;-76
2022/11/15 07:11:12;;;;;;;;;9.50;6.75;;;;;;;;5088228;27;45422;-77
2022/11/15 07:13:37;;;;;;;;;6.50;6.50;;;;;;;;5083490;27;46629;-76
2022/11/15 07:16:06;;;;;;;;;6.50;5.00;;;;;;;;5082537;27;44827;-76
2022/11/15 07:18:35;;;;;;;;;6.50;5.25;;;;;;;;5079435;27;45445;-76
2022/11/15 07:21:04;;;;;;;;;7.75;6.00;;;;;;;;5079947;27;45476;-76
2022/11/15 07:23:29;;;;;;;;;9.00;6.25;;;;;;;;5080378;27;45503;-77
2022/11/15 07:25:56;;;;;;;;;4.00;4.00;;;;;;;;5087132;27;45401;-75
2022/11/15 07:28:21;;;;;;;;;10.00;6.75;;;;;;;;5082464;27;45341;-75
2022/11/15 07:30:46;;;;;;;;;5.25;5.25;;;;;;;;5087156;27;45468;-76
2022/11/15 07:33:11;;;;;;;;;7.25;5.25;;;;;;;;5085310;27;45327;-76
2022/11/15 07:35:37;;;;;;;;;5.25;5.25;;;;;;;;5091287;27;45381;-76
2022/11/15 07:38:02;;;;;;;;;4.75;4.00;;;;;;;;5085807;27;46892;-75
2022/11/15 07:40:29;;;;;;;;;8.00;7.25;;;;;;;;5092543;27;45364;-76
2022/11/15 07:43:01;;;;;;;;;10.50;6.00;;;;;;;;5080619;27;45370;-76
2022/11/15 07:45:26;;;;;;;;;6.00;5.50;;;;;;;;5096043;27;45349;-76
2022/11/15 07:47:52;;;;;;;;;8.25;7.25;;;;;;;;5087440;27;46756;-76
2022/11/15 07:50:17;;;;;;;;;10.00;6.25;;;;;;;;5081846;27;45452;-76
2022/11/15 07:52:42;;;;;;;;;6.75;6.00;;;;;;;;5081944;27;45418;-75
2022/11/15 07:55:08;;;;;;;;;5.50;5.50;;;;;;;;5079438;27;45288;-76
2022/11/15 07:57:33;;;;;;;;;5.00;3.00;;;;;;;;5089850;27;48326;-76
2022/11/15 07:59:58;;;;;;;;;5.50;5.50;;;;;;;;5080250;27;45533;-77
2022/11/15 08:02:23;;;;;;;;;7.00;6.00;;;;;;;;5080098;27;45579;-76
2022/11/15 08:04:48;;;;;;;;;5.00;4.75;;;;;;;;5079339;27;48406;-76
2022/11/15 08:07:14;;;;;;;;;6.00;3.50;;;;;;;;5080979;27;45656;-76
2022/11/15 08:09:39;;;;;;;;;4.25;4.25;;;;;;;;5083776;27;45483;-77
2022/11/15 08:12:04;;;;;;;;;5.25;4.00;;;;;;;;5086970;27;45465;-77
2022/11/15 08:14:29;;;;;;;;;6.00;4.75;;;;;;;;5090062;27;46333;-77
2022/11/15 08:16:55;;;;;;;;;6.00;5.00;;;;;;;;5078447;27;46727;-76
2022/11/15 08:19:20;;;;;;;;;8.25;5.00;;;;;;;;5078684;28;45359;-76
2022/11/15 08:21:45;;;;;;;;;4.75;4.75;;;;;;;;5080142;27;46224;-77
2022/11/15 08:24:10;;;;;;;;;4.75;4.75;;;;;;;;5079083;28;46536;-77
2022/11/15 08:26:36;;;;;;;;;6.00;5.50;;;;;;;;5093073;27;48027;-76
2022/11/15 08:29:01;;;;;;;;;6.50;5.00;;;;;;;;5086475;27;45285;-77
2022/11/15 08:31:26;;;;;;;;;6.50;4.00;;;;;;;;5079830;27;45283;-77
2022/11/15 08:33:51;;;;;;;;;5.00;4.00;;;;;;;;5081019;27;45438;-76
2022/11/15 08:36:17;;;;;;;;;4.25;3.50;;;;;;;;5083044;27;45607;-77
2022/11/15 08:38:42;;;;;;;;;6.00;5.00;;;;;;;;5079953;27;45257;-77
2022/11/15 08:41:10;;;;;;;;;6.50;5.50;;;;;;;;5090791;27;45423;-76
2022/11/15 08:43:36;;;;;;;;;4.25;4.25;;;;;;;;5091999;27;45429;-75
2022/11/15 08:46:01;;;;;;;;;5.00;4.00;;;;;;;;5085762;27;45536;-73
2022/11/15 08:48:26;;;;;;;;;7.50;7.00;;;;;;;;5078077;27;45303;-77
2022/11/15 08:50:55;;;;;;;;;9.00;7.00;;;;;;;;5085130;27;45358;-77
2022/11/15 08:53:20;;;;;;;;;10.75;6.00;;;;;;;;5078586;27;45384;-76
2022/11/15 08:55:45;;;;;;;;;7.50;6.00;;;;;;;;5080853;27;45526;-76
2022/11/15 08:58:10;;;;;;;;;31.25;28.25;;;;;;;;5095455;27;45208;-77
2022/11/15 09:00:36;;;;;;;;;7.50;6.75;;;;;;;;5089851;27;45295;-76
2022/11/15 09:03:03;;;;;;;;;6.00;5.25;;;;;;;;5078510;27;45454;-78
2022/11/15 09:05:28;;;;;;;;;16.00;15.00;;;;;;;;5079211;27;45449;-77
2022/11/15 09:07:54;;;;;;;;;7.25;5.75;;;;;;;;5077891;27;45239;-77
2022/11/15 09:10:19;;;;;;;;;8.00;7.50;;;;;;;;5077847;27;45343;-77
2022/11/15 09:12:48;;;;;;;;;7.00;6.75;;;;;;;;5080595;27;45424;-77
2022/11/15 09:15:13;;;;;;;;;9.25;9.25;;;;;;;;5077402;27;45436;-77
2022/11/15 09:17:38;;;;;;;;;7.75;7.75;;;;;;;;5076851;27;45288;-77
2022/11/15 09:20:04;;;;;;;;;6.50;6.50;;;;;;;;5088608;27;44787;-77
2022/11/15 09:22:29;;;;;;;;;7.25;6.00;;;;;;;;5080706;27;45649;-76
2022/11/15 09:24:54;;;;;;;;;8.50;8.00;;;;;;;;5096993;27;45295;-77
2022/11/15 09:27:20;;;;;;;;;3.75;3.75;;;;;;;;5082546;27;45201;-77
2022/11/15 09:29:45;;;;;;;;;7.00;4.00;;;;;;;;5078690;27;45232;-77
2022/11/15 09:32:10;;;;;;;;;8.75;5.00;;;;;;;;5085476;27;45447;-77
2022/11/15 09:34:35;;;;;;;;;4.00;4.00;;;;;;;;5081648;27;46658;-77
2022/11/15 09:37:00;;;;;;;;;6.50;5.00;;;;;;;;5084617;27;45289;-77
2022/11/15 09:39:25;;;;;;;;;4.00;4.00;;;;;;;;5077749;27;45360;-76
2022/11/15 09:41:51;;;;;;;;;4.67;3.00;;;;;;;;5086260;27;45219;-74
2022/11/15 09:44:35;;;;;;;;;5.00;3.00;;;;;;;;5080492;27;46436;-74
2022/11/15 09:47:15;;;;;;;;;5.00;3.67;;;;;;;;5095513;27;45572;-74
2022/11/15 09:49:41;;;;;;;;;3.00;3.00;;;;;;;;5096399;27;45416;-75
2022/11/15 09:52:07;;;;;;;;;4.00;4.00;;;;;;;;5083199;27;45947;-78
2022/11/15 09:54:40;;;;;;;;;3.33;3.33;;;;;;;;5089749;27;47353;-78
2022/11/15 09:57:34;;;;;;;;;3.00;3.00;;;;;;;;5086794;27;45354;-79
2022/11/15 10:00:03;;;;;;;;;5.67;2.67;;;;;;;;5040921;27;45366;-79
2022/11/15 10:02:31;;;;;;;;;3.00;3.00;;;;;;;;5088986;27;45349;-81
2022/11/15 10:04:58;;;;;;;;;5.00;3.00;;;;;;;;5090331;27;45425;-81
2022/11/15 10:07:26;;;;;;;;;3.67;2.00;;;;;;;;5081068;27;45483;-82
2022/11/15 10:09:55;;;;;;;;;6.00;3.00;;;;;;;;5081834;27;45366;-82
2022/11/15 10:12:20;;;;;;;;;3.67;3.00;;;;;;;;5080221;27;46014;-78
2022/11/15 10:14:46;;;;;;;;;2.67;2.67;;;;;;;;5080755;27;46604;-82
2022/11/15 10:17:11;;;;;;;;;4.00;3.67;;;;;;;;5082982;27;45607;-81
2022/11/15 10:19:36;;;;;;;;;4.00;4.00;;;;;;;;5086400;27;45294;-81
2022/11/15 10:22:21;;;;;;;;;5.67;3.00;;;;;;;;5081073;27;45442;-79
2022/11/15 10:24:47;;;;;;;;;5.00;4.00;;;;;;;;5080722;27;45027;-78
2022/11/15 10:27:14;;;;;;;;;4.00;4.00;;;;;;;;5084949;27;45468;-80
2022/11/15 10:29:47;;;;;;;;;4.33;3.33;;;;;;;;5080700;27;45410;-79
2022/11/15 10:32:13;;;;;;;;;4.33;4.00;;;;;;;;5084755;27;45461;-80
2022/11/15 10:34:38;;;;;;;;;3.33;3.33;;;;;;;;5087023;27;45941;-79
2022/11/15 10:37:03;;;;;;;;;2.00;2.00;;;;;;;;5088439;27;45378;-79
2022/11/15 10:39:29;;;;;;;;;2.00;2.00;;;;;;;;5082519;27;44723;-81
2022/11/15 10:41:55;;;;;;;;;4.00;4.00;;;;;;;;5089970;27;46113;-80
2022/11/15 10:44:25;;;;;;;;;4.67;3.00;;;;;;;;5088973;27;46773;-80
2022/11/15 10:46:56;;;;;;;;;4.00;3.00;;;;;;;;5088944;27;45402;-80
2022/11/15 10:49:28;;;;;;;;;5.00;3.67;;;;;;;;5084840;27;45444;-80
2022/11/15 10:51:56;;;;;;;;;3.67;3.33;;;;;;;;5087336;27;45441;-81
2022/11/15 10:54:24;;;;;;;;;6.00;3.67;;;;;;;;5090449;27;45383;-79
2022/11/15 10:56:54;;;;;;;;;3.67;3.67;;;;;;;;5082614;27;45296;-80
2022/11/15 10:59:24;;;;;;;;;7.00;5.00;;;;;;;;5079029;27;46255;-78
2022/11/15 11:01:49;;;;;;;;;7.33;4.33;;;;;;;;5089913;27;45627;-78
2022/11/15 11:04:14;;;;;;;;;6.33;4.00;;;;;;;;5093281;27;46542;-80
2022/11/15 11:06:46;;;;;;;;;5.00;5.00;;;;;;;;5091867;27;45808;-79
2022/11/15 11:09:20;;;;;;;;;5.33;5.00;;;;;;;;5080108;27;45224;-80
2022/11/15 11:11:46;;;;;;;;;6.67;6.00;;;;;;;;5078841;27;45318;-78
2022/11/15 11:14:13;;;;;;;;;9.50;5.50;;;;;;;;5080602;27;45443;-78
2022/11/15 11:16:43;;;;;;;;;5.67;5.33;;;;;;;;5085489;27;45257;-79
2022/11/15 11:19:23;;;;;;;;;7.25;6.00;;;;;;;;5081947;27;45412;-79
2022/11/15 11:21:49;;;;;;;;;5.00;5.00;;;;;;;;5082062;27;45506;-79
2022/11/15 11:24:19;;;;;;;;;4.75;3.50;;;;;;;;5086016;27;45401;-81
2022/11/15 11:27:08;;;;;;;;;17.25;13.50;;;;;;;;5086872;27;45371;-82
2022/11/15 11:29:36;;;;;;;;;6.00;6.00;;;;;;;;5080039;27;45261;-82
2022/11/15 11:32:01;;;;;;;;;7.00;6.33;;;;;;;;5085400;27;46498;-83
2022/11/15 11:34:30;;;;;;;;;59.50;48.25;;;;;;;;5079773;27;45455;-83
2022/11/15 11:36:58;;;;;;;;;9.75;6.25;;;;;;;;5086609;27;45443;-81
2022/11/15 11:39:29;;;;;;;;;8.50;7.00;;;;;;;;5079612;27;45452;-82
2022/11/15 11:42:09;;;;;;;;;9.33;8.67;;;;;;;;5079874;27;45490;-81
2022/11/15 11:44:34;;;;;;;;;7.67;6.33;;;;;;;;5079209;27;46210;-83
2022/11/15 11:47:00;;;;;;;;;6.00;6.00;;;;;;;;5083657;27;45381;-84
2022/11/15 11:49:28;;;;;;;;;8.67;7.00;;;;;;;;5079664;27;45417;-80
2022/11/15 11:52:02;;;;;;;;;7.00;6.00;;;;;;;;5082417;27;45252;-83
2022/11/15 11:54:35;;;;;;;;;6.00;6.00;;;;;;;;5094160;27;48234;-81
2022/11/15 11:57:03;;;;;;;;;7.75;6.75;;;;;;;;5086840;27;45318;-81
2022/11/15 11:59:33;;;;;;;;;7.00;4.00;;;;;;;;5079238;28;45262;-82
2022/11/15 12:02:02;;;;;;;;;9.00;7.00;;;;;;;;5079535;27;45489;-81
2022/11/15 12:04:36;;;;;;;;;8.00;7.00;;;;;;;;5079303;27;45679;-82
2022/11/15 12:07:03;;;;;;;;;25.75;23.50;;;;;;;;5079800;27;45309;-85
2022/11/15 12:09:47;;;;;;;;;12.00;9.75;;;;;;;;5079525;27;45177;-83
2022/11/15 12:12:18;;;;;;;;;10.50;8.00;;;;;;;;5078924;27;45453;-85
2022/11/15 12:14:44;;;;;;;;;7.67;7.00;;;;;;;;5080289;27;47364;-82
2022/11/15 12:17:13;;;;;;;;;9.67;8.00;;;;;;;;5077737;27;45367;-81
2022/11/15 12:19:42;;;;;;;;;9.00;7.50;;;;;;;;5080074;27;45287;-81
2022/11/15 12:22:20;;;;;;;;;6.67;6.67;;;;;;;;5079514;27;45822;-83
2022/11/15 12:24:51;;;;;;;;;8.67;8.00;;;;;;;;5081707;27;46332;-81
2022/11/15 12:27:39;;;;;;;;;8.00;8.00;;;;;;;;5082491;27;45227;-80
2022/11/15 12:30:10;;;;;;;;;7.00;7.00;;;;;;;;5060982;27;45406;-81
2022/11/15 12:32:37;;;;;;;;;7.00;7.00;;;;;;;;5087420;27;45390;-81
2022/11/15 12:35:04;;;;;;;;;6.33;5.67;;;;;;;;5083372;27;46748;-81
2022/11/15 12:37:34;;;;;;;;;7.67;7.33;;;;;;;;5078378;27;45272;-80
2022/11/15 12:40:04;;;;;;;;;7.00;7.00;;;;;;;;5080340;27;45438;-78
2022/11/15 12:42:30;;;;;;;;;9.33;7.33;;;;;;;;5078891;27;46647;-78
2022/11/15 12:44:59;;;;;;;;;4.00;4.00;;;;;;;;5079385;27;45507;-82
2022/11/15 12:47:25;;;;;;;;;5.33;5.33;;;;;;;;5079357;27;45509;-80
2022/11/15 12:49:50;;;;;;;;;4.00;4.00;;;;;;;;5078981;27;45453;-83
2022/11/15 12:52:16;;;;;;;;;7.00;6.33;;;;;;;;5083047;27;45426;-80
2022/11/15 12:54:41;;;;;;;;;7.00;7.00;;;;;;;;5083857;27;46068;-79
2022/11/15 12:57:06;;;;;;;;;8.00;8.00;;;;;;;;5075625;27;45319;-79
2022/11/15 12:59:50;;;;;;;;;6.67;6.67;;;;;;;;5078046;27;45271;-76
2022/11/15 13:02:23;;;;;;;;;8.33;7.00;;;;;;;;5077923;27;45576;-79
2022/11/15 13:04:49;;;;;;;;;7.67;4.00;;;;;;;;5077618;27;45425;-79
2022/11/15 13:07:33;;;;;;;;;4.00;4.00;;;;;;;;5080118;27;45528;-78
2022/11/15 13:09:58;;;;;;;;;6.00;6.00;;;;;;;;5089194;27;45524;-80
2022/11/15 13:12:26;;;;;;;;;6.00;6.00;;;;;;;;5080711;27;45362;-80
2022/11/15 13:15:01;;;;;;;;;6.00;6.00;;;;;;;;5078946;27;46469;-81
2022/11/15 13:17:26;;;;;;;;;6.00;6.00;;;;;;;;5080090;27;45367;-81
2022/11/15 13:19:58;;;;;;;;;8.00;8.00;;;;;;;;5081466;27;45280;-81
2022/11/15 13:25:27;;;;;;;;;9.00;7.00;;;;;;;;5096117;27;45856;-81
2022/11/15 13:27:54;;;;;;;;;6.00;6.00;;;;;;;;5084358;27;45335;-81
2022/11/15 13:30:29;;;;;;;;;7.00;6.00;;;;;;;;5085100;27;45427;-81
2022/11/15 13:32:55;;;;;;;;;6.67;5.00;;;;;;;;5082432;27;45419;-82
2022/11/15 13:35:26;;;;;;;;;7.00;5.00;;;;;;;;5088591;27;45402;-81
2022/11/15 13:37:52;;;;;;;;;7.00;6.00;;;;;;;;5085549;27;45293;-80
2022/11/15 13:40:27;;;;;;;;;8.00;6.00;;;;;;;;5080706;27;45454;-81
2022/11/15 13:42:53;;;;;;;;;7.33;6.00;;;;;;;;5081178;27;45442;-81
2022/11/15 13:45:19;;;;;;;;;5.00;5.00;;;;;;;;5081352;27;46311;-80
2022/11/15 13:47:44;;;;;;;;;5.00;5.00;;;;;;;;5083619;27;45704;-81
2022/11/15 13:50:11;;;;;;;;;6.00;6.00;;;;;;;;5087271;27;45370;-80
2022/11/15 13:52:37;;;;;;;;;5.00;5.00;;;;;;;;5090612;27;45658;-80
2022/11/15 13:55:10;;;;;;;;;7.00;4.33;;;;;;;;5092017;27;47358;-81
2022/11/15 13:57:36;;;;;;;;;7.00;6.00;;;;;;;;5096173;27;45514;-78
2022/11/15 14:00:03;;;;;;;;;6.33;5.00;;;;;;;;5090960;27;45535;-81
2022/11/15 14:02:35;;;;;;;;;7.33;5.67;;;;;;;;5093604;27;47083;-79
2022/11/15 14:05:01;;;;;;;;;5.00;5.00;;;;;;;;5081603;27;47073;-81
2022/11/15 14:07:28;;;;;;;;;4.33;4.33;;;;;;;;5084426;27;45449;-80
2022/11/15 14:09:53;;;;;;;;;8.00;8.00;;;;;;;;5093354;27;45361;-78
2022/11/15 14:12:32;;;;;;;;;4.00;4.00;;;;;;;;5080855;27;45316;-79
2022/11/15 14:14:58;;;;;;;;;13.67;8.33;;;;;;;;5089886;27;45425;-82
2022/11/15 14:17:30;;;;;;;;;10.00;8.00;;;;;;;;5085304;27;45318;-81
2022/11/15 14:19:55;;;;;;;;;6.67;6.67;;;;;;;;5081799;27;45279;-80
2022/11/15 14:22:20;;;;;;;;;5.00;3.67;;;;;;;;5085480;27;45232;-81
2022/11/15 14:24:55;;;;;;;;;5.67;5.67;;;;;;;;5084214;27;45288;-78
2022/11/15 14:27:21;;;;;;;;;8.00;6.00;;;;;;;;5091842;27;45154;-81
2022/11/15 14:29:46;;;;;;;;;7.67;6.33;;;;;;;;5085728;27;45953;-78
2022/11/15 14:32:17;;;;;;;;;7.67;5.00;;;;;;;;5087998;27;45544;-79
2022/11/15 14:34:42;;;;;;;;;9.00;8.00;;;;;;;;5086632;27;45831;-79
2022/11/15 14:37:19;;;;;;;;;9.00;9.00;;;;;;;;5087836;27;45351;-80
2022/11/15 14:39:45;;;;;;;;;6.67;6.67;;;;;;;;5081319;27;45324;-77
2022/11/15 14:42:10;;;;;;;;;7.00;7.00;;;;;;;;5082564;27;45575;-80
2022/11/15 14:44:35;;;;;;;;;9.33;7.33;;;;;;;;5080308;27;45990;-79
2022/11/15 14:47:00;;;;;;;;;10.00;10.00;;;;;;;;5091170;27;45239;-78
2022/11/15 14:49:25;;;;;;;;;10.67;10.67;;;;;;;;5080765;27;45157;-81
2022/11/15 14:51:51;;;;;;;;;6.67;6.67;;;;;;;;5083640;27;45311;-78
2022/11/15 14:54:16;;;;;;;;;9.33;8.00;;;;;;;;5082080;27;46632;-80
2022/11/15 14:56:42;;;;;;;;;8.67;8.33;;;;;;;;5089032;27;45379;-80
2022/11/15 14:59:07;;;;;;;;;10.67;8.67;;;;;;;;5088856;27;45353;-79
2022/11/15 15:01:32;;;;;;;;;7.33;7.00;;;;;;;;5090655;27;46090;-80